sensor_id;sensor_type;location;lat;lon;timestamp;P1;durP1;ratioP1;P2;durP2;ratioP2
37855;SDS011;23694;43.274;26.924;2022-11-20T00:01:12;12.50;;;4.03;;
37855;SDS011;23694;43.274;26.924;2022-11-20T00:03:40;15.37;;;3.77;;
37855;SDS011;23694;43.274;26.924;2022-11-20T00:06:08;16.87;;;3.77;;
37855;SDS011;23694;43.274;26.924;2022-11-20T00:08:36;13.90;;;3.73;;
37855;SDS011;23694;43.274;26.924;2022-11-20T00:11:06;10.40;;;2.80;;
37855;SDS011;23694;43.274;26.924;2022-11-20T00:13:34;12.15;;;3.53;;
37855;SDS011;23694;43.274;26.924;2022-11-20T00:16:01;15.73;;;3.80;;
37855;SDS011;23694;43.274;26.924;2022-11-20T00:18:29;12.53;;;3.43;;
37855;SDS011;23694;43.274;26.924;2022-11-20T00:21:15;11.43;;;3.17;;
37855;SDS011;23694;43.274;26.924;2022-11-20T00:23:42;20.53;;;3.83;;
37855;SDS011;23694;43.274;26.924;2022-11-20T00:26:10;11.87;;;3.23;;
37855;SDS011;23694;43.274;26.924;2022-11-20T00:28:39;13.60;;;3.90;;
37855;SDS011;23694;43.274;26.924;2022-11-20T00:31:12;11.43;;;3.70;;
37855;SDS011;23694;43.274;26.924;2022-11-20T00:33:40;10.63;;;3.30;;
37855;SDS011;23694;43.274;26.924;2022-11-20T00:36:08;12.00;;;3.10;;
37855;SDS011;23694;43.274;26.924;2022-11-20T00:38:36;12.10;;;3.40;;
37855;SDS011;23694;43.274;26.924;2022-11-20T00:41:04;15.00;;;3.77;;
37855;SDS011;23694;43.274;26.924;2022-11-20T00:43:31;11.63;;;3.40;;
37855;SDS011;23694;43.274;26.924;2022-11-20T00:48:24;11.33;;;3.60;;
37855;SDS011;23694;43.274;26.924;2022-11-20T00:50:51;11.53;;;2.90;;
37855;SDS011;23694;43.274;26.924;2022-11-20T00:53:17;11.83;;;3.53;;
37855;SDS011;23694;43.274;26.924;2022-11-20T00:55:52;10.40;;;3.80;;
37855;SDS011;23694;43.274;26.924;2022-11-20T00:58:25;10.63;;;3.20;;
37855;SDS011;23694;43.274;26.924;2022-11-20T01:01:04;10.30;;;3.03;;
37855;SDS011;23694;43.274;26.924;2022-11-20T01:03:31;13.40;;;3.17;;
37855;SDS011;23694;43.274;26.924;2022-11-20T01:06:02;13.63;;;3.37;;
37855;SDS011;23694;43.274;26.924;2022-11-20T01:08:33;8.98;;;3.08;;
37855;SDS011;23694;43.274;26.924;2022-11-20T01:11:04;14.20;;;3.17;;
37855;SDS011;23694;43.274;26.924;2022-11-20T01:13:32;13.70;;;3.17;;
37855;SDS011;23694;43.274;26.924;2022-11-20T01:16:12;12.43;;;3.50;;
37855;SDS011;23694;43.274;26.924;2022-11-20T01:18:41;8.63;;;2.93;;
37855;SDS011;23694;43.274;26.924;2022-11-20T01:21:10;8.97;;;2.53;;
37855;SDS011;23694;43.274;26.924;2022-11-20T01:23:39;10.30;;;2.70;;
37855;SDS011;23694;43.274;26.924;2022-11-20T01:26:07;10.83;;;3.50;;
37855;SDS011;23694;43.274;26.924;2022-11-20T01:28:35;14.20;;;2.93;;
37855;SDS011;23694;43.274;26.924;2022-11-20T01:31:02;10.37;;;3.07;;
37855;SDS011;23694;43.274;26.924;2022-11-20T01:33:38;9.77;;;3.10;;
37855;SDS011;23694;43.274;26.924;2022-11-20T01:36:06;7.33;;;2.80;;
37855;SDS011;23694;43.274;26.924;2022-11-20T01:38:33;11.87;;;2.90;;
37855;SDS011;23694;43.274;26.924;2022-11-20T01:40:59;8.73;;;3.17;;
37855;SDS011;23694;43.274;26.924;2022-11-20T01:43:26;14.63;;;3.60;;
37855;SDS011;23694;43.274;26.924;2022-11-20T01:49:01;11.77;;;3.03;;
37855;SDS011;23694;43.274;26.924;2022-11-20T01:51:46;11.10;;;3.47;;
37855;SDS011;23694;43.274;26.924;2022-11-20T01:54:17;12.37;;;3.17;;
37855;SDS011;23694;43.274;26.924;2022-11-20T01:56:47;13.82;;;3.60;;
37855;SDS011;23694;43.274;26.924;2022-11-20T01:59:17;6.57;;;1.87;;
37855;SDS011;23694;43.274;26.924;2022-11-20T02:01:45;11.50;;;3.17;;
37855;SDS011;23694;43.274;26.924;2022-11-20T02:04:11;12.87;;;3.50;;
37855;SDS011;23694;43.274;26.924;2022-11-20T02:09:10;12.67;;;3.57;;
37855;SDS011;23694;43.274;26.924;2022-11-20T02:11:37;9.10;;;3.33;;
37855;SDS011;23694;43.274;26.924;2022-11-20T02:14:03;12.70;;;2.90;;
37855;SDS011;23694;43.274;26.924;2022-11-20T02:16:39;11.90;;;3.23;;
37855;SDS011;23694;43.274;26.924;2022-11-20T02:19:30;13.07;;;3.63;;
37855;SDS011;23694;43.274;26.924;2022-11-20T02:24:47;10.30;;;3.43;;
37855;SDS011;23694;43.274;26.924;2022-11-20T02:27:15;11.90;;;3.77;;
37855;SDS011;23694;43.274;26.924;2022-11-20T02:29:50;11.50;;;3.30;;
37855;SDS011;23694;43.274;26.924;2022-11-20T02:32:27;9.07;;;2.87;;
37855;SDS011;23694;43.274;26.924;2022-11-20T02:34:55;9.80;;;2.93;;
37855;SDS011;23694;43.274;26.924;2022-11-20T02:37:22;12.37;;;3.00;;
37855;SDS011;23694;43.274;26.924;2022-11-20T02:39:52;9.10;;;3.03;;
37855;SDS011;23694;43.274;26.924;2022-11-20T02:42:18;12.43;;;3.27;;
37855;SDS011;23694;43.274;26.924;2022-11-20T02:44:44;11.97;;;3.53;;
37855;SDS011;23694;43.274;26.924;2022-11-20T02:47:10;15.83;;;3.80;;
37855;SDS011;23694;43.274;26.924;2022-11-20T02:49:36;11.40;;;3.10;;
37855;SDS011;23694;43.274;26.924;2022-11-20T02:52:02;9.23;;;2.63;;
37855;SDS011;23694;43.274;26.924;2022-11-20T02:54:29;14.03;;;3.70;;
37855;SDS011;23694;43.274;26.924;2022-11-20T02:56:55;12.03;;;2.63;;
37855;SDS011;23694;43.274;26.924;2022-11-20T02:59:21;13.53;;;3.10;;
37855;SDS011;23694;43.274;26.924;2022-11-20T03:01:47;9.07;;;2.80;;
37855;SDS011;23694;43.274;26.924;2022-11-20T03:04:13;12.13;;;3.03;;
37855;SDS011;23694;43.274;26.924;2022-11-20T03:06:39;11.63;;;3.33;;
37855;SDS011;23694;43.274;26.924;2022-11-20T03:09:05;13.13;;;3.70;;
37855;SDS011;23694;43.274;26.924;2022-11-20T03:11:31;8.83;;;2.77;;
37855;SDS011;23694;43.274;26.924;2022-11-20T03:13:57;8.93;;;3.27;;
37855;SDS011;23694;43.274;26.924;2022-11-20T03:16:23;13.73;;;2.97;;
37855;SDS011;23694;43.274;26.924;2022-11-20T03:18:51;8.13;;;2.73;;
37855;SDS011;23694;43.274;26.924;2022-11-20T03:21:17;9.60;;;3.37;;
37855;SDS011;23694;43.274;26.924;2022-11-20T03:23:43;12.57;;;3.30;;
37855;SDS011;23694;43.274;26.924;2022-11-20T03:26:11;13.03;;;3.67;;
37855;SDS011;23694;43.274;26.924;2022-11-20T03:28:37;11.47;;;3.73;;
37855;SDS011;23694;43.274;26.924;2022-11-20T03:31:10;12.83;;;3.50;;
37855;SDS011;23694;43.274;26.924;2022-11-20T03:33:39;10.20;;;2.97;;
37855;SDS011;23694;43.274;26.924;2022-11-20T03:36:08;7.60;;;2.23;;
37855;SDS011;23694;43.274;26.924;2022-11-20T03:38:36;14.37;;;3.30;;
37855;SDS011;23694;43.274;26.924;2022-11-20T03:41:04;13.47;;;3.23;;
37855;SDS011;23694;43.274;26.924;2022-11-20T03:43:32;9.73;;;3.00;;
37855;SDS011;23694;43.274;26.924;2022-11-20T03:45:58;9.70;;;2.77;;
37855;SDS011;23694;43.274;26.924;2022-11-20T03:48:24;13.00;;;3.03;;
37855;SDS011;23694;43.274;26.924;2022-11-20T03:50:51;12.80;;;2.90;;
37855;SDS011;23694;43.274;26.924;2022-11-20T03:53:33;11.23;;;2.77;;
37855;SDS011;23694;43.274;26.924;2022-11-20T03:55:59;9.20;;;2.83;;
37855;SDS011;23694;43.274;26.924;2022-11-20T03:58:25;14.27;;;3.17;;
37855;SDS011;23694;43.274;26.924;2022-11-20T04:00:51;11.37;;;2.77;;
37855;SDS011;23694;43.274;26.924;2022-11-20T04:03:17;11.73;;;2.87;;
37855;SDS011;23694;43.274;26.924;2022-11-20T04:05:43;8.73;;;2.70;;
37855;SDS011;23694;43.274;26.924;2022-11-20T04:08:09;9.70;;;2.70;;
37855;SDS011;23694;43.274;26.924;2022-11-20T04:10:35;9.83;;;2.70;;
37855;SDS011;23694;43.274;26.924;2022-11-20T04:13:01;10.00;;;2.70;;
37855;SDS011;23694;43.274;26.924;2022-11-20T04:15:30;10.27;;;2.20;;
37855;SDS011;23694;43.274;26.924;2022-11-20T04:17:57;12.00;;;2.70;;
37855;SDS011;23694;43.274;26.924;2022-11-20T04:20:23;11.13;;;2.50;;
37855;SDS011;23694;43.274;26.924;2022-11-20T04:22:52;12.10;;;2.90;;
37855;SDS011;23694;43.274;26.924;2022-11-20T04:25:19;10.57;;;2.53;;
37855;SDS011;23694;43.274;26.924;2022-11-20T04:27:45;7.20;;;2.13;;
37855;SDS011;23694;43.274;26.924;2022-11-20T04:30:11;9.93;;;2.60;;
37855;SDS011;23694;43.274;26.924;2022-11-20T04:32:37;14.93;;;3.37;;
37855;SDS011;23694;43.274;26.924;2022-11-20T04:35:03;10.63;;;2.87;;
37855;SDS011;23694;43.274;26.924;2022-11-20T04:37:30;11.03;;;2.63;;
37855;SDS011;23694;43.274;26.924;2022-11-20T04:39:56;6.53;;;2.07;;
37855;SDS011;23694;43.274;26.924;2022-11-20T04:42:22;12.03;;;2.50;;
37855;SDS011;23694;43.274;26.924;2022-11-20T04:44:54;7.30;;;2.55;;
37855;SDS011;23694;43.274;26.924;2022-11-20T04:47:20;8.63;;;2.87;;
37855;SDS011;23694;43.274;26.924;2022-11-20T04:49:47;14.70;;;2.47;;
37855;SDS011;23694;43.274;26.924;2022-11-20T04:52:13;9.17;;;2.63;;
37855;SDS011;23694;43.274;26.924;2022-11-20T04:54:39;9.70;;;2.40;;
37855;SDS011;23694;43.274;26.924;2022-11-20T04:57:05;9.10;;;2.60;;
37855;SDS011;23694;43.274;26.924;2022-11-20T04:59:31;11.30;;;2.80;;
37855;SDS011;23694;43.274;26.924;2022-11-20T05:01:57;9.87;;;2.43;;
37855;SDS011;23694;43.274;26.924;2022-11-20T05:04:23;8.30;;;2.30;;
37855;SDS011;23694;43.274;26.924;2022-11-20T05:06:49;10.10;;;3.27;;
37855;SDS011;23694;43.274;26.924;2022-11-20T05:09:16;10.37;;;2.80;;
37855;SDS011;23694;43.274;26.924;2022-11-20T05:11:42;12.13;;;2.60;;
37855;SDS011;23694;43.274;26.924;2022-11-20T05:14:08;14.53;;;3.13;;
37855;SDS011;23694;43.274;26.924;2022-11-20T05:16:34;14.20;;;2.90;;
37855;SDS011;23694;43.274;26.924;2022-11-20T05:19:01;8.57;;;2.93;;
37855;SDS011;23694;43.274;26.924;2022-11-20T05:21:29;9.70;;;3.20;;
37855;SDS011;23694;43.274;26.924;2022-11-20T05:23:56;9.57;;;2.70;;
37855;SDS011;23694;43.274;26.924;2022-11-20T05:26:22;14.37;;;3.07;;
37855;SDS011;23694;43.274;26.924;2022-11-20T05:28:49;8.10;;;2.43;;
37855;SDS011;23694;43.274;26.924;2022-11-20T05:31:17;9.70;;;2.67;;
37855;SDS011;23694;43.274;26.924;2022-11-20T05:33:45;11.83;;;2.70;;
37855;SDS011;23694;43.274;26.924;2022-11-20T05:36:13;10.53;;;2.73;;
37855;SDS011;23694;43.274;26.924;2022-11-20T05:38:40;8.33;;;2.93;;
37855;SDS011;23694;43.274;26.924;2022-11-20T05:41:07;9.63;;;2.70;;
37855;SDS011;23694;43.274;26.924;2022-11-20T05:43:36;15.30;;;3.30;;
37855;SDS011;23694;43.274;26.924;2022-11-20T05:46:03;10.43;;;2.50;;
37855;SDS011;23694;43.274;26.924;2022-11-20T05:48:30;11.93;;;3.20;;
37855;SDS011;23694;43.274;26.924;2022-11-20T05:50:57;9.57;;;3.40;;
37855;SDS011;23694;43.274;26.924;2022-11-20T05:53:24;12.80;;;3.30;;
37855;SDS011;23694;43.274;26.924;2022-11-20T05:55:57;10.73;;;3.00;;
37855;SDS011;23694;43.274;26.924;2022-11-20T05:58:28;13.30;;;2.80;;
37855;SDS011;23694;43.274;26.924;2022-11-20T06:00:54;10.97;;;2.70;;
37855;SDS011;23694;43.274;26.924;2022-11-20T06:03:31;9.97;;;2.40;;
37855;SDS011;23694;43.274;26.924;2022-11-20T06:05:58;8.97;;;2.20;;
37855;SDS011;23694;43.274;26.924;2022-11-20T06:08:25;8.50;;;2.43;;
37855;SDS011;23694;43.274;26.924;2022-11-20T06:10:51;8.57;;;2.27;;
37855;SDS011;23694;43.274;26.924;2022-11-20T06:13:17;14.83;;;2.83;;
37855;SDS011;23694;43.274;26.924;2022-11-20T06:15:48;7.77;;;2.63;;
37855;SDS011;23694;43.274;26.924;2022-11-20T06:20:41;14.23;;;3.00;;
37855;SDS011;23694;43.274;26.924;2022-11-20T06:23:07;8.83;;;2.37;;
37855;SDS011;23694;43.274;26.924;2022-11-20T06:25:33;13.43;;;5.90;;
37855;SDS011;23694;43.274;26.924;2022-11-20T06:28:03;7.97;;;2.30;;
37855;SDS011;23694;43.274;26.924;2022-11-20T06:30:29;7.30;;;2.10;;
37855;SDS011;23694;43.274;26.924;2022-11-20T06:32:55;18.93;;;10.33;;
37855;SDS011;23694;43.274;26.924;2022-11-20T06:35:21;12.83;;;3.07;;
37855;SDS011;23694;43.274;26.924;2022-11-20T06:37:47;13.63;;;6.37;;
37855;SDS011;23694;43.274;26.924;2022-11-20T06:40:13;10.90;;;2.47;;
37855;SDS011;23694;43.274;26.924;2022-11-20T06:42:40;16.57;;;3.67;;
37855;SDS011;23694;43.274;26.924;2022-11-20T06:45:07;9.03;;;1.97;;
37855;SDS011;23694;43.274;26.924;2022-11-20T06:47:33;9.53;;;2.50;;
37855;SDS011;23694;43.274;26.924;2022-11-20T06:49:59;16.87;;;10.17;;
37855;SDS011;23694;43.274;26.924;2022-11-20T06:52:25;10.43;;;2.23;;
37855;SDS011;23694;43.274;26.924;2022-11-20T06:54:51;16.20;;;4.60;;
37855;SDS011;23694;43.274;26.924;2022-11-20T06:57:17;12.30;;;3.57;;
37855;SDS011;23694;43.274;26.924;2022-11-20T06:59:44;8.80;;;2.63;;
37855;SDS011;23694;43.274;26.924;2022-11-20T07:02:10;12.60;;;2.47;;
37855;SDS011;23694;43.274;26.924;2022-11-20T07:04:38;13.60;;;3.10;;
37855;SDS011;23694;43.274;26.924;2022-11-20T07:07:04;12.43;;;2.90;;
37855;SDS011;23694;43.274;26.924;2022-11-20T07:09:31;9.93;;;2.40;;
37855;SDS011;23694;43.274;26.924;2022-11-20T07:11:59;10.47;;;2.70;;
37855;SDS011;23694;43.274;26.924;2022-11-20T07:14:25;10.67;;;2.30;;
37855;SDS011;23694;43.274;26.924;2022-11-20T07:16:52;9.80;;;2.40;;
37855;SDS011;23694;43.274;26.924;2022-11-20T07:19:18;11.00;;;2.30;;
37855;SDS011;23694;43.274;26.924;2022-11-20T07:21:44;9.50;;;2.60;;
37855;SDS011;23694;43.274;26.924;2022-11-20T07:24:10;12.33;;;2.27;;
37855;SDS011;23694;43.274;26.924;2022-11-20T07:26:36;11.87;;;2.20;;
37855;SDS011;23694;43.274;26.924;2022-11-20T07:29:02;10.93;;;3.03;;
37855;SDS011;23694;43.274;26.924;2022-11-20T07:31:29;8.27;;;2.37;;
37855;SDS011;23694;43.274;26.924;2022-11-20T07:33:55;6.30;;;1.90;;
37855;SDS011;23694;43.274;26.924;2022-11-20T07:36:21;5.83;;;1.80;;
37855;SDS011;23694;43.274;26.924;2022-11-20T07:38:47;12.57;;;2.67;;
37855;SDS011;23694;43.274;26.924;2022-11-20T07:41:13;15.33;;;2.70;;
37855;SDS011;23694;43.274;26.924;2022-11-20T07:43:39;7.60;;;2.10;;
37855;SDS011;23694;43.274;26.924;2022-11-20T07:46:05;8.07;;;2.07;;
37855;SDS011;23694;43.274;26.924;2022-11-20T07:48:31;9.20;;;2.27;;
37855;SDS011;23694;43.274;26.924;2022-11-20T07:50:57;11.50;;;2.20;;
37855;SDS011;23694;43.274;26.924;2022-11-20T07:53:24;8.30;;;2.80;;
37855;SDS011;23694;43.274;26.924;2022-11-20T07:55:50;10.20;;;2.83;;
37855;SDS011;23694;43.274;26.924;2022-11-20T07:58:18;11.67;;;2.50;;
37855;SDS011;23694;43.274;26.924;2022-11-20T08:00:45;8.10;;;2.13;;
37855;SDS011;23694;43.274;26.924;2022-11-20T08:03:11;8.27;;;2.30;;
37855;SDS011;23694;43.274;26.924;2022-11-20T08:05:38;12.10;;;2.60;;
37855;SDS011;23694;43.274;26.924;2022-11-20T08:08:04;9.20;;;2.30;;
37855;SDS011;23694;43.274;26.924;2022-11-20T08:10:30;10.57;;;2.13;;
37855;SDS011;23694;43.274;26.924;2022-11-20T08:12:59;15.10;;;2.40;;
37855;SDS011;23694;43.274;26.924;2022-11-20T08:15:47;7.83;;;2.40;;
37855;SDS011;23694;43.274;26.924;2022-11-20T08:20:41;12.77;;;2.47;;
37855;SDS011;23694;43.274;26.924;2022-11-20T08:23:07;13.03;;;3.53;;
37855;SDS011;23694;43.274;26.924;2022-11-20T08:25:34;7.10;;;1.87;;
37855;SDS011;23694;43.274;26.924;2022-11-20T08:28:03;10.70;;;2.30;;
37855;SDS011;23694;43.274;26.924;2022-11-20T08:30:31;12.37;;;2.30;;
37855;SDS011;23694;43.274;26.924;2022-11-20T08:33:04;11.80;;;2.60;;
37855;SDS011;23694;43.274;26.924;2022-11-20T08:35:32;12.53;;;2.23;;
37855;SDS011;23694;43.274;26.924;2022-11-20T08:38:00;10.43;;;2.80;;
37855;SDS011;23694;43.274;26.924;2022-11-20T08:40:27;14.67;;;2.70;;
37855;SDS011;23694;43.274;26.924;2022-11-20T08:42:53;12.07;;;4.10;;
37855;SDS011;23694;43.274;26.924;2022-11-20T08:45:19;19.27;;;5.30;;
37855;SDS011;23694;43.274;26.924;2022-11-20T08:47:46;13.73;;;3.60;;
37855;SDS011;23694;43.274;26.924;2022-11-20T08:50:13;15.83;;;3.47;;
37855;SDS011;23694;43.274;26.924;2022-11-20T08:52:40;9.83;;;2.77;;
37855;SDS011;23694;43.274;26.924;2022-11-20T08:55:07;14.10;;;3.43;;
37855;SDS011;23694;43.274;26.924;2022-11-20T08:57:34;12.77;;;3.20;;
37855;SDS011;23694;43.274;26.924;2022-11-20T09:00:03;15.80;;;3.67;;
37855;SDS011;23694;43.274;26.924;2022-11-20T09:02:31;15.43;;;3.77;;
37855;SDS011;23694;43.274;26.924;2022-11-20T09:04:58;15.50;;;3.10;;
37855;SDS011;23694;43.274;26.924;2022-11-20T09:07:24;11.20;;;3.03;;
37855;SDS011;23694;43.274;26.924;2022-11-20T09:09:50;13.70;;;2.90;;
37855;SDS011;23694;43.274;26.924;2022-11-20T09:12:16;8.30;;;2.27;;
37855;SDS011;23694;43.274;26.924;2022-11-20T09:14:42;8.87;;;2.73;;
37855;SDS011;23694;43.274;26.924;2022-11-20T09:17:09;19.57;;;4.03;;
37855;SDS011;23694;43.274;26.924;2022-11-20T09:19:39;11.70;;;2.90;;
37855;SDS011;23694;43.274;26.924;2022-11-20T09:22:05;16.87;;;3.47;;
37855;SDS011;23694;43.274;26.924;2022-11-20T09:24:32;13.87;;;4.00;;
37855;SDS011;23694;43.274;26.924;2022-11-20T09:26:58;13.67;;;4.20;;
37855;SDS011;23694;43.274;26.924;2022-11-20T09:29:27;17.47;;;4.53;;
37855;SDS011;23694;43.274;26.924;2022-11-20T09:31:55;14.20;;;3.50;;
37855;SDS011;23694;43.274;26.924;2022-11-20T09:34:22;17.93;;;3.97;;
37855;SDS011;23694;43.274;26.924;2022-11-20T09:36:48;17.87;;;3.27;;
37855;SDS011;23694;43.274;26.924;2022-11-20T09:39:14;16.80;;;3.73;;
37855;SDS011;23694;43.274;26.924;2022-11-20T09:54:41;18.70;;;3.70;;
37855;SDS011;23694;43.274;26.924;2022-11-20T09:57:09;12.70;;;3.47;;
37855;SDS011;23694;43.274;26.924;2022-11-20T09:59:43;15.40;;;4.10;;
37855;SDS011;23694;43.274;26.924;2022-11-20T10:05:11;12.97;;;3.90;;
37855;SDS011;23694;43.274;26.924;2022-11-20T10:30:18;11.48;;;3.30;;
37855;SDS011;23694;43.274;26.924;2022-11-20T10:32:48;12.03;;;3.83;;
37855;SDS011;23694;43.274;26.924;2022-11-20T10:38:15;15.10;;;4.53;;
37855;SDS011;23694;43.274;26.924;2022-11-20T10:41:04;14.07;;;4.63;;
37855;SDS011;23694;43.274;26.924;2022-11-20T10:47:14;22.83;;;7.83;;
37855;SDS011;23694;43.274;26.924;2022-11-20T10:49:42;14.90;;;5.72;;
37855;SDS011;23694;43.274;26.924;2022-11-20T10:54:53;14.93;;;4.83;;
37855;SDS011;23694;43.274;26.924;2022-11-20T11:00:10;14.67;;;4.40;;
37855;SDS011;23694;43.274;26.924;2022-11-20T11:02:39;11.97;;;3.90;;
37855;SDS011;23694;43.274;26.924;2022-11-20T11:05:18;15.90;;;4.10;;
37855;SDS011;23694;43.274;26.924;2022-11-20T11:07:53;13.17;;;4.50;;
37855;SDS011;23694;43.274;26.924;2022-11-20T11:10:26;15.07;;;4.77;;
37855;SDS011;23694;43.274;26.924;2022-11-20T11:13:01;14.33;;;4.63;;
37855;SDS011;23694;43.274;26.924;2022-11-20T11:15:29;10.53;;;4.60;;
37855;SDS011;23694;43.274;26.924;2022-11-20T11:18:02;14.67;;;3.80;;
37855;SDS011;23694;43.274;26.924;2022-11-20T11:20:29;13.73;;;3.93;;
37855;SDS011;23694;43.274;26.924;2022-11-20T11:22:58;13.30;;;4.50;;
37855;SDS011;23694;43.274;26.924;2022-11-20T11:25:27;15.13;;;4.57;;
37855;SDS011;23694;43.274;26.924;2022-11-20T11:28:03;14.47;;;4.60;;
37855;SDS011;23694;43.274;26.924;2022-11-20T11:30:44;12.33;;;4.07;;
37855;SDS011;23694;43.274;26.924;2022-11-20T11:33:21;17.07;;;4.40;;
37855;SDS011;23694;43.274;26.924;2022-11-20T11:36:02;12.20;;;4.00;;
37855;SDS011;23694;43.274;26.924;2022-11-20T11:38:32;11.50;;;3.03;;
37855;SDS011;23694;43.274;26.924;2022-11-20T11:41:02;18.35;;;4.22;;
37855;SDS011;23694;43.274;26.924;2022-11-20T11:43:31;16.30;;;3.97;;
37855;SDS011;23694;43.274;26.924;2022-11-20T11:46:31;14.23;;;3.57;;
37855;SDS011;23694;43.274;26.924;2022-11-20T11:51:36;14.27;;;3.67;;
37855;SDS011;23694;43.274;26.924;2022-11-20T11:54:15;13.77;;;3.47;;
37855;SDS011;23694;43.274;26.924;2022-11-20T11:59:12;20.93;;;3.60;;
37855;SDS011;23694;43.274;26.924;2022-11-20T12:01:52;12.23;;;3.70;;
37855;SDS011;23694;43.274;26.924;2022-11-20T12:07:03;21.10;;;8.13;;
37855;SDS011;23694;43.274;26.924;2022-11-20T12:09:46;23.10;;;11.47;;
37855;SDS011;23694;43.274;26.924;2022-11-20T12:12:21;18.75;;;10.60;;
37855;SDS011;23694;43.274;26.924;2022-11-20T12:14:53;16.53;;;10.07;;
37855;SDS011;23694;43.274;26.924;2022-11-20T12:17:22;22.57;;;12.67;;
37855;SDS011;23694;43.274;26.924;2022-11-20T12:19:48;20.07;;;11.43;;
37855;SDS011;23694;43.274;26.924;2022-11-20T12:25:01;16.27;;;7.10;;
37855;SDS011;23694;43.274;26.924;2022-11-20T12:27:44;18.13;;;11.53;;
37855;SDS011;23694;43.274;26.924;2022-11-20T12:30:20;21.93;;;11.10;;
37855;SDS011;23694;43.274;26.924;2022-11-20T12:35:57;20.97;;;10.93;;
37855;SDS011;23694;43.274;26.924;2022-11-20T12:41:51;41.10;;;23.40;;
37855;SDS011;23694;43.274;26.924;2022-11-20T12:50:11;19.83;;;10.87;;
37855;SDS011;23694;43.274;26.924;2022-11-20T12:59:07;23.97;;;11.97;;
37855;SDS011;23694;43.274;26.924;2022-11-20T13:04:34;30.63;;;15.13;;
37855;SDS011;23694;43.274;26.924;2022-11-20T13:07:18;31.93;;;16.87;;
37855;SDS011;23694;43.274;26.924;2022-11-20T13:09:47;36.33;;;19.03;;
37855;SDS011;23694;43.274;26.924;2022-11-20T13:12:27;41.97;;;16.87;;
37855;SDS011;23694;43.274;26.924;2022-11-20T13:15:03;33.30;;;14.07;;
37855;SDS011;23694;43.274;26.924;2022-11-20T13:17:54;26.13;;;13.87;;
37855;SDS011;23694;43.274;26.924;2022-11-20T13:20:24;24.17;;;13.23;;
37855;SDS011;23694;43.274;26.924;2022-11-20T13:22:52;25.47;;;14.47;;
37855;SDS011;23694;43.274;26.924;2022-11-20T13:25:29;26.67;;;14.63;;
37855;SDS011;23694;43.274;26.924;2022-11-20T13:27:57;26.38;;;14.25;;
37855;SDS011;23694;43.274;26.924;2022-11-20T13:30:26;26.93;;;11.37;;
37855;SDS011;23694;43.274;26.924;2022-11-20T13:32:58;21.57;;;12.63;;
37855;SDS011;23694;43.274;26.924;2022-11-20T13:35:33;17.80;;;11.10;;
37855;SDS011;23694;43.274;26.924;2022-11-20T13:38:12;19.30;;;11.67;;
37855;SDS011;23694;43.274;26.924;2022-11-20T13:40:53;21.67;;;11.40;;
37855;SDS011;23694;43.274;26.924;2022-11-20T13:45:57;24.33;;;11.98;;
37855;SDS011;23694;43.274;26.924;2022-11-20T13:51:02;23.13;;;13.07;;
37855;SDS011;23694;43.274;26.924;2022-11-20T13:53:36;28.60;;;12.40;;
37855;SDS011;23694;43.274;26.924;2022-11-20T13:59:10;27.50;;;14.67;;
37855;SDS011;23694;43.274;26.924;2022-11-20T14:01:54;22.53;;;12.70;;
37855;SDS011;23694;43.274;26.924;2022-11-20T14:04:29;33.57;;;17.93;;
37855;SDS011;23694;43.274;26.924;2022-11-20T14:07:01;31.13;;;17.87;;
37855;SDS011;23694;43.274;26.924;2022-11-20T14:09:32;27.90;;;14.53;;
37855;SDS011;23694;43.274;26.924;2022-11-20T14:11:59;21.67;;;13.03;;
37855;SDS011;23694;43.274;26.924;2022-11-20T14:14:27;24.07;;;11.70;;
37855;SDS011;23694;43.274;26.924;2022-11-20T14:17:06;22.43;;;11.40;;
37855;SDS011;23694;43.274;26.924;2022-11-20T14:19:33;18.83;;;11.27;;
37855;SDS011;23694;43.274;26.924;2022-11-20T14:24:34;25.30;;;13.73;;
37855;SDS011;23694;43.274;26.924;2022-11-20T14:27:00;29.00;;;14.30;;
37855;SDS011;23694;43.274;26.924;2022-11-20T14:29:34;23.80;;;13.87;;
37855;SDS011;23694;43.274;26.924;2022-11-20T14:32:03;20.57;;;13.57;;
37855;SDS011;23694;43.274;26.924;2022-11-20T14:34:31;23.40;;;14.07;;
37855;SDS011;23694;43.274;26.924;2022-11-20T14:37:03;23.20;;;13.83;;
37855;SDS011;23694;43.274;26.924;2022-11-20T14:39:35;20.37;;;12.80;;
37855;SDS011;23694;43.274;26.924;2022-11-20T14:42:14;12.80;;;8.17;;
37855;SDS011;23694;43.274;26.924;2022-11-20T14:44:45;15.90;;;9.33;;
37855;SDS011;23694;43.274;26.924;2022-11-20T14:47:13;13.77;;;9.43;;
37855;SDS011;23694;43.274;26.924;2022-11-20T14:49:44;20.65;;;10.43;;
37855;SDS011;23694;43.274;26.924;2022-11-20T14:54:46;15.30;;;10.00;;
37855;SDS011;23694;43.274;26.924;2022-11-20T14:57:32;12.03;;;6.53;;
37855;SDS011;23694;43.274;26.924;2022-11-20T15:00:03;7.53;;;5.60;;
37855;SDS011;23694;43.274;26.924;2022-11-20T15:02:33;7.50;;;5.20;;
37855;SDS011;23694;43.274;26.924;2022-11-20T15:05:00;8.13;;;5.20;;
37855;SDS011;23694;43.274;26.924;2022-11-20T15:07:34;8.82;;;5.57;;
37855;SDS011;23694;43.274;26.924;2022-11-20T15:10:12;12.93;;;7.15;;
37855;SDS011;23694;43.274;26.924;2022-11-20T15:12:40;11.57;;;6.30;;
37855;SDS011;23694;43.274;26.924;2022-11-20T15:15:15;13.27;;;6.67;;
37855;SDS011;23694;43.274;26.924;2022-11-20T15:17:46;11.13;;;5.93;;
37855;SDS011;23694;43.274;26.924;2022-11-20T15:20:13;11.43;;;6.50;;
37855;SDS011;23694;43.274;26.924;2022-11-20T15:22:41;10.67;;;5.83;;
37855;SDS011;23694;43.274;26.924;2022-11-20T15:25:17;14.77;;;8.87;;
37855;SDS011;23694;43.274;26.924;2022-11-20T15:27:44;15.23;;;7.90;;
37855;SDS011;23694;43.274;26.924;2022-11-20T15:30:16;10.00;;;5.05;;
37855;SDS011;23694;43.274;26.924;2022-11-20T15:32:44;29.97;;;20.17;;
37855;SDS011;23694;43.274;26.924;2022-11-20T15:35:11;9.03;;;6.37;;
37855;SDS011;23694;43.274;26.924;2022-11-20T15:37:39;11.30;;;5.03;;
37855;SDS011;23694;43.274;26.924;2022-11-20T15:40:06;10.37;;;4.97;;
37855;SDS011;23694;43.274;26.924;2022-11-20T15:42:33;15.83;;;10.20;;
37855;SDS011;23694;43.274;26.924;2022-11-20T15:45:00;11.20;;;8.13;;
37855;SDS011;23694;43.274;26.924;2022-11-20T15:47:33;8.53;;;4.93;;
37855;SDS011;23694;43.274;26.924;2022-11-20T15:50:01;10.33;;;4.97;;
37855;SDS011;23694;43.274;26.924;2022-11-20T15:52:28;8.90;;;6.00;;
37855;SDS011;23694;43.274;26.924;2022-11-20T15:54:54;11.37;;;5.53;;
37855;SDS011;23694;43.274;26.924;2022-11-20T15:57:20;8.07;;;5.30;;
37855;SDS011;23694;43.274;26.924;2022-11-20T15:59:46;10.60;;;5.17;;
37855;SDS011;23694;43.274;26.924;2022-11-20T16:02:12;15.33;;;6.07;;
37855;SDS011;23694;43.274;26.924;2022-11-20T16:04:40;7.97;;;5.13;;
37855;SDS011;23694;43.274;26.924;2022-11-20T16:07:07;9.67;;;6.33;;
37855;SDS011;23694;43.274;26.924;2022-11-20T16:09:33;16.07;;;7.00;;
37855;SDS011;23694;43.274;26.924;2022-11-20T16:11:59;14.00;;;5.83;;
37855;SDS011;23694;43.274;26.924;2022-11-20T16:14:26;8.43;;;5.53;;
37855;SDS011;23694;43.274;26.924;2022-11-20T16:17:11;11.37;;;6.10;;
37855;SDS011;23694;43.274;26.924;2022-11-20T16:19:38;8.93;;;5.90;;
37855;SDS011;23694;43.274;26.924;2022-11-20T16:22:04;12.17;;;6.60;;
37855;SDS011;23694;43.274;26.924;2022-11-20T16:24:30;12.27;;;5.23;;
37855;SDS011;23694;43.274;26.924;2022-11-20T16:26:56;10.07;;;5.20;;